Time;durP1;ratioP1;P1;durP2;ratioP2;P2;SDS_P1;SDS_P2;PMS_P1;PMS_P2;Temp;Humidity;BMP_temperature;BMP_pressure;BME280_temperature;BME280_humidity;BME280_pressure;Samples;Min_cycle;Max_cycle;Signal;HPM_P1;HPM_P2
2023/01/04 00:00:58;;;;;;;32.67;18.30;;;;;;;5.07;74.74;100421.88;4962450;28;20410;-95
2023/01/04 00:03:23;;;;;;;35.95;18.33;;;;;;;4.94;74.43;100406.69;4950250;28;20062;-94
2023/01/04 00:05:49;;;;;;;33.17;17.20;;;;;;;5.00;74.46;100416.56;4948148;28;20112;-94
2023/01/04 00:08:14;;;;;;;31.45;16.38;;;;;;;4.98;75.11;100423.94;4958189;28;20053;-94
2023/01/04 00:10:40;;;;;;;30.08;16.55;;;;;;;5.00;74.56;100424.56;4964505;28;20054;-94
2023/01/04 00:13:05;;;;;;;26.98;16.38;;;;;;;5.01;75.02;100422.72;4965767;28;20022;-93
2023/01/04 00:15:31;;;;;;;23.30;14.93;;;;;;;4.95;74.21;100394.97;4960668;28;20039;-94
2023/01/04 00:17:56;;;;;;;28.98;16.40;;;;;;;5.16;74.09;100428.63;4947401;28;20030;-94
2023/01/04 00:20:22;;;;;;;28.52;15.40;;;;;;;4.98;74.31;100415.09;4974268;28;20045;-93
2023/01/04 00:22:47;;;;;;;29.35;15.68;;;;;;;4.78;75.26;100412.44;4958922;28;20041;-95
2023/01/04 00:25:13;;;;;;;27.17;16.60;;;;;;;4.77;74.78;100435.63;4962023;28;20488;-95
2023/01/04 00:27:38;;;;;;;28.77;16.00;;;;;;;4.65;74.98;100415.94;4950670;28;20034;-95
2023/01/04 00:30:04;;;;;;;26.75;15.05;;;;;;;4.71;75.28;100425.78;4929254;28;20461;-94
2023/01/04 00:32:30;;;;;;;28.55;15.00;;;;;;;4.84;74.90;100428.44;4928998;28;20041;-95
2023/01/04 00:34:56;;;;;;;25.73;14.13;;;;;;;4.71;74.72;100430.28;4945403;28;20015;-94
2023/01/04 00:37:21;;;;;;;26.80;15.82;;;;;;;4.59;74.20;100425.56;4928351;28;20031;-95
2023/01/04 00:39:47;;;;;;;27.35;15.25;;;;;;;4.52;74.85;100438.03;4933992;28;20027;-95
2023/01/04 00:42:12;;;;;;;27.45;14.75;;;;;;;4.69;74.66;100459.00;4944055;28;20014;-95
2023/01/04 00:44:38;;;;;;;24.23;14.20;;;;;;;4.64;74.41;100431.09;4941522;28;20061;-94
2023/01/04 00:47:03;;;;;;;25.20;14.38;;;;;;;4.52;74.64;100430.03;4952665;28;20382;-94
2023/01/04 00:49:29;;;;;;;30.05;15.55;;;;;;;4.43;74.59;100439.25;4938543;28;20440;-94
2023/01/04 00:51:57;;;;;;;26.13;15.63;;;;;;;4.42;74.26;100427.78;4958145;28;20027;-95
2023/01/04 00:54:23;;;;;;;27.42;15.75;;;;;;;4.46;74.89;100436.19;4957511;28;20041;-94
2023/01/04 00:56:49;;;;;;;26.55;15.15;;;;;;;4.36;75.40;100433.09;4959960;28;20473;-94
2023/01/04 00:59:16;;;;;;;28.13;16.10;;;;;;;4.40;75.01;100442.31;4951981;28;20054;-95
2023/01/04 01:01:41;;;;;;;28.42;15.18;;;;;;;4.43;74.90;100431.25;4938994;28;20552;-93
2023/01/04 01:04:09;;;;;;;23.77;15.27;;;;;;;4.24;74.64;100420.34;4944767;28;20100;-95
2023/01/04 01:06:35;;;;;;;25.42;15.40;;;;;;;4.26;74.59;100422.81;4943807;28;20031;-94
2023/01/04 01:09:00;;;;;;;27.67;15.38;;;;;;;4.08;74.71;100412.72;4959277;28;20037;-94
2023/01/04 01:11:26;;;;;;;30.33;16.67;;;;;;;4.16;75.08;100430.38;4958012;28;20031;-94
2023/01/04 01:13:52;;;;;;;26.67;15.85;;;;;;;4.12;75.07;100429.94;4952662;28;20041;-95
2023/01/04 01:16:19;;;;;;;28.35;16.95;;;;;;;3.97;75.13;100426.63;4948375;28;20034;-95
2023/01/04 01:18:45;;;;;;;27.17;15.65;;;;;;;4.03;75.79;100441.81;4950463;28;20373;-94
2023/01/04 01:21:15;;;;;;;27.45;15.68;;;;;;;3.99;75.69;100440.56;4960640;28;20031;-94
2023/01/04 01:23:42;;;;;;;26.98;16.33;;;;;;;3.91;76.17;100435.41;4950883;28;20053;-94
2023/01/04 01:26:10;;;;;;;27.02;16.52;;;;;;;3.84;75.58;100430.06;4954830;28;20468;-95
2023/01/04 01:28:36;;;;;;;28.48;15.98;;;;;;;4.00;75.13;100447.53;4963261;28;20030;-94
2023/01/04 01:31:15;;;;;;;24.63;15.50;;;;;;;3.94;75.61;100422.50;4963573;28;20062;-95
2023/01/04 01:33:42;;;;;;;27.63;15.32;;;;;;;4.24;74.90;100452.34;4964323;28;20397;-94
2023/01/04 01:36:08;;;;;;;26.35;14.75;;;;;;;4.18;74.69;100423.81;4963044;28;20037;-94
2023/01/04 01:38:33;;;;;;;27.27;16.02;;;;;;;4.22;74.91;100425.06;4963286;28;20030;-94
2023/01/04 01:40:59;;;;;;;25.90;15.15;;;;;;;4.29;74.65;100437.59;4963261;28;20033;-94
2023/01/04 01:43:53;;;;;;;24.98;15.18;;;;;;;4.29;75.27;100449.06;4960881;28;20093;-94
2023/01/04 01:46:22;;;;;;;23.20;14.18;;;;;;;4.10;75.60;100445.31;4990661;28;20034;-94
2023/01/04 01:48:48;;;;;;;24.70;13.88;;;;;;;3.99;75.85;100438.72;4942465;28;20081;-94
2023/01/04 01:51:14;;;;;;;31.30;16.23;;;;;;;4.17;75.47;100451.50;4934648;28;20035;-94
2023/01/04 01:53:40;;;;;;;25.85;14.75;;;;;;;4.27;75.14;100436.97;4953904;28;20027;-95
2023/01/04 01:56:06;;;;;;;22.63;13.35;;;;;;;4.32;74.09;100438.00;4947839;28;20030;-94
2023/01/04 01:58:36;;;;;;;27.90;15.13;;;;;;;4.18;74.90;100423.00;4963079;28;20432;-94
2023/01/04 02:01:02;;;;;;;23.33;14.48;;;;;;;4.08;74.73;100425.22;4954056;28;20046;-94
2023/01/04 02:03:32;;;;;;;27.70;14.20;;;;;;;4.11;75.09;100433.66;4967852;28;20031;-94
2023/01/04 02:05:57;;;;;;;21.88;13.90;;;;;;;4.03;74.46;100434.63;4930745;28;20515;-95
2023/01/04 02:08:23;;;;;;;21.58;13.43;;;;;;;4.25;74.04;100445.16;4927817;28;20150;-94
2023/01/04 02:10:49;;;;;;;23.08;13.52;;;;;;;4.44;74.40;100454.22;4928285;28;20054;-94
2023/01/04 02:13:17;;;;;;;27.13;12.73;;;;;;;4.29;74.06;100435.72;4927093;28;20057;-95
2023/01/04 02:15:59;;;;;;;22.05;12.38;;;;;;;4.18;73.68;100420.34;4928262;28;20035;-94
2023/01/04 02:18:30;;;;;;;;;;;;;;;4.41;73.93;100452.78;4944412;28;20022;-94
2023/01/04 02:21:01;;;;;;;19.63;11.90;;;;;;;4.23;73.95;100426.72;4942808;28;19977;-95
2023/01/04 02:23:32;;;;;;;21.55;13.18;;;;;;;4.44;73.94;100462.22;4928582;28;20037;-94
2023/01/04 02:26:35;;;;;;;25.83;13.93;;;;;;;4.37;74.25;100445.41;4959587;28;20120;-94
2023/01/04 02:29:10;;;;;;;19.05;12.13;;;;;;;4.34;74.12;100443.97;4959268;28;20093;-95
2023/01/04 02:31:52;;;;;;;20.48;12.02;;;;;;;4.52;73.41;100455.91;4970555;28;20027;-94
2023/01/04 02:34:44;;;;;;;22.45;12.98;;;;;;;4.53;73.75;100446.88;4947802;28;20034;-94
2023/01/04 02:37:39;;;;;;;20.10;12.88;;;;;;;4.70;73.85;100450.81;4947731;28;20050;-95
2023/01/04 02:40:48;;;;;;;22.15;12.18;;;;;;;4.82;72.55;100443.03;4950307;28;20558;-95
2023/01/04 02:46:17;;;;;;;19.70;12.48;;;;;;;4.70;72.93;100425.97;4962022;28;20057;-95
2023/01/04 02:51:37;;;;;;;20.98;12.30;;;;;;;4.74;74.03;100445.88;4947086;28;20029;-95
2023/01/04 02:54:05;;;;;;;23.50;12.23;;;;;;;4.84;72.80;100438.31;4966327;28;20030;-94
2023/01/04 02:56:46;;;;;;;22.88;13.52;;;;;;;4.96;73.30;100435.81;4959175;28;20113;-94
2023/01/04 02:59:23;;;;;;;20.23;12.93;;;;;;;4.99;74.01;100432.75;4986451;28;20458;-95
2023/01/04 03:08:20;;;;;;;14.93;9.73;;;;;;;4.97;75.29;100400.13;4994747;28;20036;-94
2023/01/04 03:10:48;;;;;;;22.42;12.25;;;;;;;4.95;73.43;100421.66;4964443;28;20035;-95
2023/01/04 03:13:33;;;;;;;21.35;12.73;;;;;;;4.71;73.88;100412.44;4977851;28;20026;-95
2023/01/04 03:16:19;;;;;;;23.20;12.75;;;;;;;4.37;73.30;100413.41;4961840;28;20058;-95
2023/01/04 03:18:47;;;;;;;20.00;12.57;;;;;;;4.30;72.49;100432.06;4954818;28;20010;-94
2023/01/04 03:21:12;;;;;;;22.55;12.48;;;;;;;3.93;73.91;100406.72;4940680;28;20023;-95
2023/01/04 03:35:40;;;;;;;21.10;13.40;;;;;;;4.02;74.83;100422.31;4987242;28;20190;-95
2023/01/04 03:49:47;;;;;;;19.40;12.63;;;;;;;4.17;75.08;100427.50;4951747;28;20095;-95
2023/01/04 03:52:12;;;;;;;25.75;13.88;;;;;;;4.03;74.72;100421.31;4945433;28;20022;-95
2023/01/04 03:54:43;;;;;;;20.88;13.73;;;;;;;3.78;75.26;100406.88;4929600;28;20098;-94
2023/01/04 03:57:08;;;;;;;24.77;14.13;;;;;;;3.83;75.50;100426.53;4946065;28;20030;-95
2023/01/04 04:00:13;;;;;;;22.10;12.90;;;;;;;3.75;76.15;100439.22;4941031;28;20072;-94
2023/01/04 04:02:38;;;;;;;21.63;12.93;;;;;;;3.69;75.71;100434.66;4956500;28;20030;-95
2023/01/04 04:10:33;;;;;;;22.35;12.15;;;;;;;3.92;75.78;100445.03;4968293;28;20069;-95
2023/01/04 04:12:58;;;;;;;22.38;12.77;;;;;;;3.81;75.66;100439.25;4930336;28;20022;-94
2023/01/04 04:15:24;;;;;;;23.02;12.25;;;;;;;3.75;75.29;100424.03;4929972;28;20026;-95
2023/01/04 04:17:49;;;;;;;23.90;12.35;;;;;;;3.90;75.38;100444.41;4929772;28;20508;-95
2023/01/04 04:20:15;;;;;;;22.17;12.77;;;;;;;3.89;75.17;100440.09;4928837;28;20051;-94
2023/01/04 04:22:40;;;;;;;24.52;13.07;;;;;;;3.92;75.36;100451.19;4928835;28;20023;-95
2023/01/04 04:25:06;;;;;;;25.95;12.75;;;;;;;3.60;75.77;100429.50;4929908;28;20037;-94
2023/01/04 04:27:32;;;;;;;21.45;12.55;;;;;;;3.64;76.12;100435.28;4929583;28;20102;-96
2023/01/04 04:29:57;;;;;;;23.02;13.00;;;;;;;3.59;75.72;100441.19;4929834;28;20109;-94
2023/01/04 04:32:23;;;;;;;24.73;13.52;;;;;;;3.64;75.79;100457.38;4929199;28;20043;-95
2023/01/04 04:34:49;;;;;;;28.80;14.27;;;;;;;3.66;75.98;100459.06;4930801;28;20030;-96
2023/01/04 04:37:14;;;;;;;20.30;12.82;;;;;;;3.44;76.03;100422.69;4930695;28;20023;-96
2023/01/04 04:39:40;;;;;;;21.50;12.98;;;;;;;3.51;75.81;100436.03;4930601;28;20026;-96
2023/01/04 04:42:06;;;;;;;24.17;13.18;;;;;;;3.51;75.70;100441.34;4929505;28;20026;-96
2023/01/04 04:44:33;;;;;;;49.83;15.70;;;;;;;3.54;75.85;100462.25;4931111;28;20026;-95
2023/01/04 04:46:58;;;;;;;28.05;12.27;;;;;;;3.62;75.54;100463.94;4930165;28;20050;-96
2023/01/04 04:49:24;;;;;;;24.52;12.55;;;;;;;3.51;74.77;100470.63;4929714;28;20018;-96
2023/01/04 04:51:49;;;;;;;22.77;12.13;;;;;;;3.45;75.05;100460.75;4928555;28;20027;-96
2023/01/04 04:54:19;;;;;;;18.35;12.02;;;;;;;3.44;75.54;100465.28;4931633;28;20033;-96
2023/01/04 04:56:45;;;;;;;18.15;11.55;;;;;;;3.52;74.81;100488.25;4966022;28;20054;-96
2023/01/04 04:59:11;;;;;;;27.52;15.25;;;;;;;3.34;75.36;100451.47;4950118;28;20113;-96
2023/01/04 05:01:40;;;;;;;22.88;13.00;;;;;;;3.26;75.33;100456.94;4931015;28;20381;-96
2023/01/04 05:04:06;;;;;;;27.23;12.50;;;;;;;3.40;75.48;100471.16;4946135;28;20022;-95
2023/01/04 05:06:32;;;;;;;23.90;12.30;;;;;;;3.26;75.67;100440.13;4929906;28;20058;-96
2023/01/04 05:08:57;;;;;;;25.50;11.85;;;;;;;3.45;75.46;100458.09;4930115;28;20057;-96
2023/01/04 05:14:10;;;;;;;26.92;13.88;;;;;;;3.63;75.13;100473.56;4950273;28;20033;-96
2023/01/04 05:16:36;;;;;;;21.23;12.50;;;;;;;3.57;74.65;100453.88;4930349;28;20030;-95
2023/01/04 05:19:02;;;;;;;21.80;12.45;;;;;;;3.72;74.60;100464.41;4946466;28;20083;-96
2023/01/04 05:21:30;;;;;;;26.48;13.35;;;;;;;3.80;74.24;100474.91;4930394;28;20023;-96
2023/01/04 05:23:56;;;;;;;28.00;13.10;;;;;;;3.68;74.38;100468.47;4929274;28;20033;-96
2023/01/04 05:26:25;;;;;;;24.27;12.98;;;;;;;3.61;74.85;100459.63;4930296;28;20414;-96
2023/01/04 05:29:01;;;;;;;29.98;13.98;;;;;;;3.59;74.93;100451.84;4949267;28;20030;-96
2023/01/04 05:31:27;;;;;;;27.15;16.13;;;;;;;3.58;74.50;100452.03;4933989;28;20062;-93
2023/01/04 05:33:55;;;;;;;31.67;14.43;;;;;;;3.76;74.29;100478.16;4929091;28;20114;-96
2023/01/04 05:36:21;;;;;;;26.42;13.70;;;;;;;3.75;74.13;100465.84;4944682;28;20023;-95
2023/01/04 05:38:52;;;;;;;25.80;14.52;;;;;;;3.95;74.13;100477.44;4931066;28;20026;-95
2023/01/04 05:44:01;;;;;;;25.33;14.73;;;;;;;3.86;74.22;100494.63;4952265;28;20050;-94
2023/01/04 05:46:27;;;;;;;28.73;14.25;;;;;;;3.87;73.95;100495.44;4929353;28;20022;-94
2023/01/04 05:48:52;;;;;;;26.13;15.82;;;;;;;3.98;73.22;100502.84;4946766;28;20509;-95
2023/01/04 05:51:20;;;;;;;28.77;15.27;;;;;;;3.99;73.41;100483.19;4946932;28;20048;-94
2023/01/04 05:53:47;;;;;;;26.20;15.00;;;;;;;4.12;73.14;100482.44;4931020;28;20033;-96
2023/01/04 05:56:12;;;;;;;28.10;14.40;;;;;;;4.21;73.16;100498.06;4927854;28;20031;-93
2023/01/04 05:58:38;;;;;;;24.50;13.70;;;;;;;4.07;72.71;100475.03;4928004;28;20041;-94
2023/01/04 06:01:06;;;;;;;22.20;14.02;;;;;;;4.34;73.24;100509.81;4928667;28;20473;-92
2023/01/04 06:03:32;;;;;;;31.02;15.80;;;;;;;4.46;72.25;100516.19;4948613;28;20030;-95
2023/01/04 06:06:00;;;;;;;21.52;13.93;;;;;;;4.30;72.14;100487.22;4930330;28;20058;-95
2023/01/04 06:08:25;;;;;;;31.70;14.82;;;;;;;4.30;71.76;100514.72;4929743;28;20027;-95
2023/01/04 06:10:53;;;;;;;32.60;15.27;;;;;;;4.28;72.18;100519.41;4928555;28;20054;-93
2023/01/04 06:13:19;;;;;;;22.83;13.32;;;;;;;4.30;71.19;100495.22;4936973;28;20416;-91
2023/01/04 06:15:47;;;;;;;36.38;16.33;;;;;;;4.56;70.86;100521.16;4966499;28;20042;-96
2023/01/04 06:18:23;;;;;;;24.13;14.43;;;;;;;4.47;71.12;100506.38;4947768;28;20094;-95
2023/01/04 06:20:50;;;;;;;25.27;13.85;;;;;;;4.48;70.70;100503.47;4963856;28;20033;-93
2023/01/04 06:23:16;;;;;;;22.73;12.93;;;;;;;4.49;70.87;100513.13;4964502;28;20068;-93
2023/01/04 06:25:41;;;;;;;36.70;19.52;;;;;;;4.37;71.65;100518.22;4948775;28;20098;-93
2023/01/04 06:28:07;;;;;;;30.70;16.80;;;;;;;4.32;71.67;100501.19;4952623;28;20470;-93
2023/01/04 06:30:33;;;;;;;25.30;15.02;;;;;;;4.52;71.46;100542.06;4950509;28;20464;-95
2023/01/04 06:33:00;;;;;;;29.77;13.75;;;;;;;4.35;71.84;100524.78;4943293;28;20037;-95
2023/01/04 06:35:26;;;;;;;25.80;14.98;;;;;;;4.22;72.14;100512.22;4948320;28;20027;-95
2023/01/04 06:37:51;;;;;;;22.70;14.82;;;;;;;4.42;71.29;100514.94;4948892;28;20053;-96
2023/01/04 06:40:35;;;;;;;27.33;15.38;;;;;;;4.41;71.57;100497.31;4935900;28;20040;-96
2023/01/04 06:43:10;;;;;;;21.73;13.85;;;;;;;4.63;71.37;100520.16;4966918;28;20026;-96
2023/01/04 06:45:35;;;;;;;25.25;14.65;;;;;;;4.60;71.56;100525.06;4950494;28;20014;-94
2023/01/04 06:48:05;;;;;;;23.55;15.60;;;;;;;4.66;70.56;100511.72;4948151;28;20026;-94
2023/01/04 06:50:42;;;;;;;28.58;15.98;;;;;;;4.68;70.91;100516.06;4963802;28;20022;-95
2023/01/04 06:53:08;;;;;;;28.50;15.20;;;;;;;4.93;71.24;100543.00;4945820;28;20031;-95
2023/01/04 06:55:36;;;;;;;23.95;15.43;;;;;;;4.79;71.21;100537.66;4939003;28;20041;-96
2023/01/04 06:58:02;;;;;;;24.55;14.60;;;;;;;4.86;70.92;100548.34;4965086;28;20027;-95
2023/01/04 07:00:52;;;;;;;36.85;15.38;;;;;;;4.80;71.02;100522.47;4952057;28;20033;-96
2023/01/04 07:03:32;;;;;;;26.55;13.50;;;;;;;5.01;70.83;100522.28;4969943;28;20093;-96
2023/01/04 07:06:01;;;;;;;23.08;14.73;;;;;;;5.17;69.91;100528.25;4985843;28;20019;-95
2023/01/04 07:08:27;;;;;;;30.63;15.85;;;;;;;5.35;69.91;100539.13;5001499;28;20041;-94
2023/01/04 07:10:57;;;;;;;25.30;15.98;;;;;;;5.45;68.98;100538.72;4954951;28;20026;-96
2023/01/04 07:13:29;;;;;;;33.88;17.27;;;;;;;5.49;68.72;100523.13;4977401;28;20023;-96
2023/01/04 07:18:57;;;;;;;32.00;18.60;;;;;;;5.58;69.18;100530.72;4941394;28;20030;-96
2023/01/04 07:21:25;;;;;;;35.65;19.27;;;;;;;5.61;69.37;100541.00;4971368;28;20089;-95
2023/01/04 07:23:51;;;;;;;40.70;21.38;;;;;;;5.80;68.25;100539.31;4969874;28;20029;-96
2023/01/04 07:26:19;;;;;;;35.28;21.60;;;;;;;5.79;68.66;100543.03;4992150;28;20417;-96
2023/01/04 07:31:29;;;;;;;29.42;17.05;;;;;;;5.81;69.05;100550.81;4975067;28;20484;-96
2023/01/04 07:36:48;;;;;;;25.92;16.25;;;;;;;5.80;69.26;100535.84;5033800;23;20102;-95
2023/01/04 07:41:59;;;;;;;40.72;19.92;;;;;;;6.02;69.17;100533.78;4987474;28;20058;-96
2023/01/04 07:44:27;;;;;;;31.45;18.45;;;;;;;6.15;68.48;100535.59;4942648;28;20046;-96
2023/01/04 07:46:53;;;;;;;34.75;19.70;;;;;;;6.11;69.07;100551.22;4938883;28;20042;-95
2023/01/04 07:49:31;;;;;;;37.05;20.33;;;;;;;6.18;69.03;100546.66;4955576;28;20045;-95
2023/01/04 07:52:02;;;;;;;34.83;20.67;;;;;;;6.23;68.33;100528.13;4935807;28;20042;-96
2023/01/04 07:54:46;;;;;;;42.03;22.60;;;;;;;6.40;68.22;100523.13;4931508;29;20422;-96
2023/01/04 07:57:14;;;;;;;41.15;24.88;;;;;;;6.56;68.02;100561.97;4925053;29;20038;-94
2023/01/04 07:59:39;;;;;;;40.97;23.52;;;;;;;6.47;68.87;100558.72;4919379;29;20462;-95
2023/01/04 08:02:17;;;;;;;35.78;22.80;;;;;;;6.68;67.87;100552.25;4918337;29;20090;-96
2023/01/04 08:04:46;;;;;;;49.78;25.70;;;;;;;6.62;67.68;100546.91;4953194;29;20067;-96
2023/01/04 08:07:27;;;;;;;46.03;25.67;;;;;;;6.57;67.72;100536.03;4938972;29;20087;-96
2023/01/04 08:09:55;;;;;;;44.78;22.27;;;;;;;6.82;67.68;100571.72;4935764;29;20076;-94
2023/01/04 08:12:21;;;;;;;35.83;21.88;;;;;;;6.56;68.29;100559.28;4918290;29;20100;-96
2023/01/04 08:14:49;;;;;;;46.03;21.85;;;;;;;6.51;68.38;100552.94;4915866;29;20055;-93
2023/01/04 08:20:06;;;;;;;37.42;20.48;;;;;;;6.60;68.31;100575.72;4938757;28;20036;-95
2023/01/04 08:23:00;;;;;;;;;;;;;;;;;;;;;
2023/01/04 08:25:31;;;;;;;40.13;21.08;;;;;;;6.61;68.64;100562.13;5016338;23;20070;-95
2023/01/04 08:28:20;;;;;;;31.45;19.30;;;;;;;6.66;67.83;100569.53;4932071;29;20039;-94
2023/01/04 08:30:54;;;;;;;28.85;16.50;;;;;;;6.68;67.43;100548.72;4937685;29;20019;-94
2023/01/04 08:33:23;;;;;;;35.60;17.67;;;;;;;6.84;68.04;100583.03;4923562;29;20043;-93
2023/01/04 08:35:57;;;;;;;30.55;19.23;;;;;;;6.84;67.63;100553.56;4915141;29;20035;-94
2023/01/04 08:43:35;;;;;;;47.17;20.17;;;;;;;7.11;66.56;100552.59;5409988;23;20062;-95
2023/01/04 08:46:03;;;;;;;32.92;18.67;;;;;;;7.00;67.75;100559.47;5528366;23;20298;-95
2023/01/04 08:48:33;;;;;;;29.17;17.67;;;;;;;7.37;67.47;100584.56;5259096;23;20030;-95
2023/01/04 08:56:11;;;;;;;41.03;20.63;;;;;;;7.66;65.80;100552.81;5370849;23;21394;31
2023/01/04 09:04:09;;;;;;;31.85;21.80;;;;;;;7.78;66.69;100585.06;5365948;23;20112;31
2023/01/04 09:11:55;;;;;;;40.67;22.40;;;;;;;7.82;66.04;100565.66;5252972;23;20043;-96
2023/01/04 09:14:21;;;;;;;36.83;21.85;;;;;;;7.75;65.53;100551.47;4941776;29;20043;-93
2023/01/04 09:21:54;;;;;;;33.35;19.60;;;;;;;7.90;66.12;100538.53;5479615;23;20047;-95
2023/01/04 09:24:23;;;;;;;35.95;19.05;;;;;;;7.93;66.36;100548.00;4969354;28;20174;-96
2023/01/04 09:26:49;;;;;;;34.90;20.38;;;;;;;7.73;66.92;100545.50;4960352;28;20037;-96
2023/01/04 09:29:15;;;;;;;33.95;19.25;;;;;;;7.99;66.46;100560.53;4958516;28;20058;-96
2023/01/04 09:31:54;;;;;;;36.90;20.15;;;;;;;7.99;66.66;100563.22;4957559;28;20030;-96
2023/01/04 09:40:18;;;;;;;38.40;18.55;;;;;;;7.34;67.14;100519.88;4893967;29;20438;-96
2023/01/04 09:42:56;;;;;;;32.85;18.80;;;;;;;7.64;66.83;100528.09;4867875;29;20120;-96
2023/01/04 09:45:27;;;;;;;41.00;22.50;;;;;;;7.83;66.31;100535.09;4920407;29;20054;-96
2023/01/04 09:48:12;;;;;;;42.03;21.98;;;;;;;7.98;66.09;100534.75;4920309;29;20155;-95
2023/01/04 09:51:21;;;;;;;43.05;21.52;;;;;;;8.12;65.96;100537.28;4914982;29;20036;-95
2023/01/04 09:54:31;;;;;;;39.30;21.20;;;;;;;8.00;66.10;100521.13;4930976;29;20053;-96
2023/01/04 09:56:57;;;;;;;39.35;19.55;;;;;;;8.21;65.76;100535.94;4882266;29;20038;-92
2023/01/04 09:59:31;;;;;;;39.10;19.85;;;;;;;8.24;65.58;100525.59;4913107;29;20122;-95
2023/01/04 10:02:14;;;;;;;36.25;22.10;;;;;;;8.40;66.23;100553.66;4915515;29;20043;-95
2023/01/04 10:04:53;;;;;;;36.20;16.60;;;;;;;8.41;65.80;100525.81;4893088;29;20043;-95
2023/01/04 10:07:21;;;;;;;28.80;15.52;;;;;;;8.71;65.70;100538.44;4875676;29;20039;-95
2023/01/04 10:09:53;;;;;;;29.77;15.75;;;;;;;8.74;65.42;100538.00;4953669;28;20049;-96
2023/01/04 10:13:00;;;;;;;25.00;15.55;;;;;;;8.60;65.37;100518.56;4940909;28;20122;-95
2023/01/04 10:15:51;;;;;;;34.17;19.17;;;;;;;8.67;65.56;100519.31;4914334;29;20139;-96
2023/01/04 10:18:48;;;;;;;33.35;17.33;;;;;;;8.89;65.33;100541.09;4928967;29;20055;-96
2023/01/04 10:21:40;;;;;;;40.53;20.20;;;;;;;8.92;64.91;100541.66;4939705;29;20143;-96
2023/01/04 10:24:45;;;;;;;32.95;20.10;;;;;;;8.92;64.73;100541.66;4935840;29;20035;-96
2023/01/04 10:27:25;;;;;;;37.25;20.48;;;;;;;8.93;64.57;100521.84;4946528;29;20063;-95
2023/01/04 10:30:15;;;;;;;41.10;22.30;;;;;;;8.81;64.71;100511.84;4912139;29;20093;-96
2023/01/04 10:32:42;;;;;;;38.30;21.42;;;;;;;8.76;64.88;100514.44;4932887;29;20027;-95
2023/01/04 10:35:23;;;;;;;36.38;19.70;;;;;;;8.92;64.60;100518.31;4921229;29;20042;-96
2023/01/04 10:37:59;;;;;;;53.88;23.33;;;;;;;8.96;64.04;100506.06;4931586;29;20089;-96
2023/01/04 10:40:30;;;;;;;43.72;24.15;;;;;;;8.94;64.57;100488.53;4945601;29;20039;-96
2023/01/04 10:43:26;;;;;;;47.95;24.52;;;;;;;9.03;64.08;100508.66;4913677;29;20055;-96
2023/01/04 10:46:01;;;;;;;42.50;23.65;;;;;;;9.20;63.98;100520.38;4884426;29;20055;-94
2023/01/04 10:48:45;;;;;;;47.90;27.63;;;;;;;9.28;64.19;100528.09;4922991;28;20041;-96
2023/01/04 10:51:16;;;;;;;47.03;24.83;;;;;;;9.25;63.94;100517.00;4940901;29;20055;-96
2023/01/04 10:54:32;;;;;;;;;;;;;;;;;;;;;
2023/01/04 10:57:19;;;;;;;45.42;25.70;;;;;;;9.39;63.48;100528.34;4962159;28;20125;-90
2023/01/04 10:59:48;;;;;;;173.65;86.30;;;;;;;9.33;63.42;100505.09;4959266;28;20421;-91
2023/01/04 11:02:36;;;;;;;80.28;36.67;;;;;;;9.35;63.40;100511.88;4922924;29;20042;-94
2023/01/04 11:05:58;;;;;;;54.00;29.77;;;;;;;9.18;64.10;100492.09;4943658;28;20110;-92
2023/01/04 11:09:14;;;;;;;146.10;28.95;;;;;;;9.47;64.12;100525.31;4947387;28;20046;-95
2023/01/04 11:11:42;;;;;;;42.25;22.83;;;;;;;9.41;64.07;100516.31;4950327;28;20042;-96
2023/01/04 11:14:09;;;;;;;43.58;25.65;;;;;;;9.33;64.20;100502.41;4934538;28;20039;-96
2023/01/04 11:16:59;;;;;;;54.15;28.60;;;;;;;9.41;64.14;100512.81;4932107;28;20066;-96
2023/01/04 11:28:16;;;;;;;46.22;28.42;;;;;;;9.39;63.51;100515.72;4946714;28;20055;-96
2023/01/04 11:31:09;;;;;;;57.25;29.77;;;;;;;9.40;64.40;100512.00;4890016;29;20051;-94
2023/01/04 11:33:58;;;;;;;30.10;15.75;;;;;;;9.46;66.27;100508.38;4919990;29;20071;-94
2023/01/04 11:36:53;;;;;;;23.67;13.18;;;;;;;9.50;67.16;100492.59;4888137;29;20036;-94
2023/01/04 11:39:23;;;;;;;26.52;13.77;;;;;;;9.44;66.93;100475.53;4857025;29;20036;-93
2023/01/04 11:42:05;;;;;;;30.77;15.57;;;;;;;9.54;66.81;100492.94;4868427;29;20041;-93
2023/01/04 11:44:36;;;;;;;24.60;14.25;;;;;;;9.59;67.09;100487.69;4857300;29;20059;-93
2023/01/04 11:47:23;;;;;;;19.88;11.82;;;;;;;9.65;67.00;100502.88;4864464;29;20036;-94
2023/01/04 11:49:55;;;;;;;22.60;12.98;;;;;;;9.69;67.13;100490.59;4867202;29;20033;-95
2023/01/04 11:52:34;;;;;;;20.55;12.60;;;;;;;9.79;66.57;100501.56;4864609;29;20468;-94
2023/01/04 11:55:30;;;;;;;21.27;13.43;;;;;;;9.59;67.54;100504.66;4874939;29;20478;-93
2023/01/04 11:58:15;;;;;;;27.40;15.70;;;;;;;9.70;66.76;100505.69;4885519;29;20032;-93
2023/01/04 12:00:52;;;;;;;39.25;20.27;;;;;;;9.45;66.85;100479.03;4889404;29;20570;-94
2023/01/04 12:03:27;;;;;;;36.22;19.88;;;;;;;9.35;66.00;100473.44;4857479;29;20480;-96
2023/01/04 12:05:55;;;;;;;37.97;20.48;;;;;;;9.61;65.71;100488.28;4861844;29;20040;-95
2023/01/04 12:08:35;;;;;;;26.95;16.52;;;;;;;9.31;67.43;100481.94;4898737;29;20037;-93
2023/01/04 12:11:13;;;;;;;40.13;22.15;;;;;;;9.40;66.76;100462.78;4895746;29;20075;-95
2023/01/04 12:13:44;;;;;;;26.25;15.48;;;;;;;9.30;68.10;100472.25;4907143;29;20099;-96
2023/01/04 12:16:37;;;;;;;25.77;14.55;;;;;;;9.40;67.97;100479.75;4904487;29;20059;-96
2023/01/04 12:19:05;;;;;;;21.17;13.38;;;;;;;9.38;67.94;100470.25;4926703;29;20040;-94
2023/01/04 12:21:34;;;;;;;19.55;13.23;;;;;;;9.41;68.41;100488.63;4890514;29;20028;-94
2023/01/04 12:24:10;;;;;;;21.75;12.75;;;;;;;9.45;68.24;100485.22;4917199;29;20093;-93
2023/01/04 12:26:42;;;;;;;22.05;13.05;;;;;;;9.31;68.21;100481.13;4884647;29;20056;-94
2023/01/04 12:29:22;;;;;;;20.67;12.90;;;;;;;9.41;68.33;100494.81;4875800;29;20036;-95
2023/01/04 12:32:06;;;;;;;26.23;13.45;;;;;;;9.11;69.27;100465.34;4907335;29;20027;-96
2023/01/04 12:43:54;;;;;;;;;;;;;;;;;;;;;
2023/01/04 12:53:18;;;;;;;;;;;;;;;;;;;;;
2023/01/04 12:55:46;;;;;;;26.42;14.40;;;;;;;9.42;69.54;100509.91;4967595;29;20114;-96
2023/01/04 12:58:31;;;;;;;41.95;23.10;;;;;;;9.34;69.70;100509.41;4954284;29;20161;-96
2023/01/04 13:01:12;;;;;;;29.77;16.60;;;;;;;9.27;70.21;100522.94;4939357;29;20027;-96
2023/01/04 13:03:46;;;;;;;31.50;18.42;;;;;;;9.23;70.40;100513.72;4957085;29;20019;-94
2023/01/04 13:06:22;;;;;;;33.13;17.33;;;;;;;9.11;70.28;100489.53;4912863;29;20034;-94
2023/01/04 13:08:56;;;;;;;31.25;16.30;;;;;;;9.09;70.20;100497.00;4914446;29;20083;-95
2023/01/04 13:11:40;;;;;;;31.38;17.38;;;;;;;9.36;69.94;100526.13;4918031;29;20050;-95
2023/01/04 13:14:27;;;;;;;34.85;18.08;;;;;;;9.26;70.06;100507.91;4933875;29;20024;-95
2023/01/04 13:17:11;;;;;;;36.42;18.40;;;;;;;9.42;69.47;100534.09;4927516;29;20122;-95
2023/01/04 13:19:37;;;;;;;34.70;20.20;;;;;;;9.33;69.96;100527.41;4936687;29;20028;-94
2023/01/04 13:22:02;;;;;;;38.25;19.33;;;;;;;9.17;70.28;100520.84;4908047;29;20042;-95
2023/01/04 13:24:56;;;;;;;37.28;18.25;;;;;;;9.09;70.62;100513.13;4905703;29;20030;-96
2023/01/04 13:27:22;;;;;;;31.10;18.45;;;;;;;9.28;70.33;100529.97;4910973;29;20130;-95
2023/01/04 13:29:52;;;;;;;26.55;16.98;;;;;;;9.38;69.65;100524.84;4898007;29;20051;-96
2023/01/04 13:32:58;;;;;;;32.72;18.10;;;;;;;9.20;69.99;100506.94;4923555;29;20066;-93
2023/01/04 13:35:18;;;;;;;36.50;19.73;;;;;;;9.34;70.10;100531.75;4925769;29;20154;-96
2023/01/04 13:37:53;;;;;;;43.15;21.63;;;;;;;9.06;71.05;100510.88;4924302;29;20031;-94
2023/01/04 13:40:27;;;;;;;36.65;18.90;;;;;;;8.82;71.91;100516.19;4900724;29;20027;-95
2023/01/04 13:43:10;;;;;;;41.03;20.92;;;;;;;9.19;71.22;100550.16;4919115;29;20104;-94
2023/01/04 13:46:14;;;;;;;38.85;19.88;;;;;;;9.11;71.04;100513.72;4938406;29;20031;-96